Boothia: Past 24 Hour Conditions

 

Baker Lake Airport

02:00 PM CDT 25 October 2014
This table is a summary of hourly weather conditions for the past 24 hours.
Date / Time
(CDT)
Wind(knots) Conditions Visibility(km) Pressure(kPa) Air tempC) Relative humidity(%) Dew pointC) Wind Chill
25 October 2014
14:00 ENE 14 Light Snow 6 101.1 -5 88 -7 -12
13:00 ENE 14 Light Snow 24 101.1 -5 86 -7 -12
12:00 ENE 14 gust 19 Light Snow 8 101.1 -5 88 -7 -12
11:00 ENE 16 Drifting Snow 24 101.0 -5 86 -7 -13
10:00 ENE 14 Light Snow 24 101.0 -5 87 -7 -12
9:00 ENE 14 Light Snow 8 101.0 -5 89 -6 -12
8:00 ENE 17 Light Snow 24 101.0 -5 88 -7 -13
7:00 ENE 18 gust 24 Light Snow 24 101.0 -5 87 -7 -14
6:00 E 19 gust 26 Light Snow 24 101.0 -5 87 -7 -13
5:00 E 22 Light Snow 24 100.9 -5 86 -7 -14
4:00 E 21 gust 27 Light Snow 24 101.0 -5 87 -7 -14
3:00 ENE 19 gust 25 Drifting Snow 24 101.0 -5 87 -7 -14
2:00 E 21 gust 28 Drifting Snow 24 101.0 -5 87 -7 -14
1:00 E 25 gust 30 Cloudy 24 101.0 -4 85 -7 -14
0:00 E 23 gust 28 Drifting Snow 24 101.0 -4 86 -6 -13
24 October 2014
23:00 E 22 gust 28 Drifting Snow 24 101.0 -3 87 -5 -12
22:00 E 21 gust 27 Drifting Snow 24 101.0 -3 87 -5 -12
21:00 E 20 Drifting Snow 24 101.1 -3 87 -5 -11
20:00 E 21 gust 27 Drifting Snow 24 101.1 -2 88 -4 -11
19:00 ENE 18 gust 27 Drifting Snow 24 101.1 -3 88 -5 -11
18:00 E 20 gust 31 Drifting Snow 24 101.1 -3 87 -5 -12
17:00 ESE 22 gust 32 Drifting Snow 32 101.2 -2 82 -5 -10
16:00 ESE 26 gust 33 Drifting Snow 32 101.2 -2 79 -5 -11
15:00 ESE 25 gust 33 Drifting Snow 32 101.3 -2 78 -6 -11
14:00 ESE 24 gust 30 Drifting Snow 32 101.4 -2 79 -6 -11
 
Map of Arctic - Eastern Arctic marine weather areas Baker Lake Airport Chesterfield Inlet Airport Coral Harbour Airport Gjoa Haven Airport Kugaaruk Airport Rankin Inlet Airport Shepherd Bay Airport Whale Cove Airport Arctic Bay Brevoort Island Qikiqtarjuaq Airport Cape Dorset Airport Cape Dyer Cape Hooper Clyde Airport Grise Fiord Airport Hall Beach Airport Igloolik Airport Iqaluit Airport Longstaff Bluff Pangnirtung Airport Pond Inlet Airport Repulse Bay Airport Resolute Airport Resolution Island Rowley Island Airport Taloyoak Airport Wager Bay Akulivik Airport Ivujivik Airport Puvirnituq Airport Kangiqsujuaq Airport Kangirsuk Airport Quaqtaq Airport Tasiujaq Airport Cape Kakkiviak Cape Kiglapait Nain Airport Saglek Cape Mercy Kimmirut Airport Aupaluk Airport Salluit Airport Kangiqsualujjuaq Airport Fort Ross
Legend: buoyBuoy land stationLand Station